Create Tblcommutelog Verified Points Advance Search
| # | Trip ID | Id Commuter | Trip Date | Trip Num | Current Lat | Current Lng | Delta Distance | Current Time | Activity | Activity Confidence | Current Speed | |
|---|---|---|---|---|---|---|---|---|---|---|---|---|
| 72401 | 250808_785175_16653273_1609 | 785175 | (not set) | (not set) | 38.918801660585 | -77.034666324569 | 5.1982 | 2025-08-08 18:22:04 | on_foot | 100 | 0.26822355539263 | |
| 72402 | 250808_686385_16539846_1809 | 686385 | (not set) | (not set) | 38.834984996176 | -77.046234002901 | 3.2136 | 2025-08-08 18:23:17 | in_vehicle | 100 | 8.3283413949413 | |
| 72403 | 250808_764454_16631362_1712 | 764454 | (not set) | (not set) | 38.9243291 | -77.5182848 | 34.7374 | 2025-08-08 18:24:32 | in_vehicle | 100 | 0 | |
| 72404 | 250808_784252_16656535_1759 | 784252 | (not set) | (not set) | 39.309423272582 | -77.347155968975 | 18.6706 | 2025-08-08 18:25:04 | in_vehicle | 100 | 5.2616520782855 | |
| 72405 | 250808_787006_16514887_1803 | 787006 | (not set) | (not set) | 38.86352785688 | -77.060302428918 | 3.024 | 2025-08-08 18:26:34 | on_foot | 100 | -0.44703925898772 | |
| 72406 | 250808_784252_16656535_1759 | 784252 | (not set) | (not set) | 39.324966245015 | -77.362494852324 | 20.1192 | 2025-08-08 18:28:08 | in_vehicle | 100 | 7.174980106753 | |
| 72407 | 250808_736904_16601646_1726 | 736904 | (not set) | (not set) | 39.2621876 | -76.6473945 | 23.9441 | 2025-08-08 18:17:45 | in_vehicle | 100 | 4.9934285228929 | |
| 72408 | 250808_736904_16601646_1726 | 736904 | (not set) | (not set) | 39.2705759 | -76.6368174 | 24.7544 | 2025-08-08 18:19:27 | in_vehicle | 100 | 5.0828363746904 | |
| 72409 | 250808_736904_16601646_1726 | 736904 | (not set) | (not set) | 39.2767408 | -76.6213921 | 25.7911 | 2025-08-08 18:22:14 | in_vehicle | 100 | 2.838699294572 | |
| 72410 | 250808_736904_16601646_1726 | 736904 | (not set) | (not set) | 39.2856827 | -76.6194925 | 26.4272 | 2025-08-08 18:28:20 | walking | 100 | 0.63479574776257 | |
| 72411 | 250808_784252_16656535_1759 | 784252 | (not set) | (not set) | 39.374196991454 | -77.40498196522 | 24.3099 | 2025-08-08 18:32:29 | in_vehicle | 100 | 11.752662118787 | |
| 72412 | 250808_784252_16656535_1759 | 784252 | (not set) | (not set) | 39.406081422414 | -77.432803716197 | 26.9808 | 2025-08-08 18:34:52 | in_vehicle | 100 | 12.879201051436 | |
| 72413 | 250808_769460_16636522_1808 | 769460 | (not set) | (not set) | 38.914009928031 | -77.027165069684 | 2.1888 | 2025-08-08 18:35:36 | still | 33 | 4.2558137455631 | |
| 72414 | 250808_785765_16653954_1836 | 785765 | (not set) | (not set) | 39.638559450911 | -77.692961153138 | 0 | 2025-08-08 18:36:06 | unknown | 100 | 0 | |
| 72415 | 250808_785765_16653954_1836 | 785765 | (not set) | (not set) | 39.638557971838 | -77.692967639727 | 0 | 2025-08-08 18:36:13 | still | 33 | 0 | |
| 72416 | 250808_785765_16653954_1836 | 785765 | (not set) | (not set) | 39.638555823987 | -77.692976189519 | 0 | 2025-08-08 18:36:18 | still | 33 | 0 | |
| 72417 | 250808_785765_16653954_1836 | 785765 | (not set) | (not set) | 39.638567125372 | -77.692887787885 | 0 | 2025-08-08 18:36:23 | still | 33 | 1.6495748656647 | |
| 72418 | 250808_785765_16653954_1836 | 785765 | (not set) | (not set) | 39.638692729917 | -77.692633403794 | 0 | 2025-08-08 18:36:28 | still | 33 | 2.3067225763767 | |
| 72419 | 250808_784252_16656535_1759 | 784252 | (not set) | (not set) | 39.415742934081 | -77.436138291423 | 27.9601 | 2025-08-08 18:36:54 | in_vehicle | 100 | 3.2589161980205 | |
| 72420 | 250808_785765_16653954_1836 | 785765 | (not set) | (not set) | 39.637422293901 | -77.695744389902 | 0.2208 | 2025-08-08 18:38:31 | in_vehicle | 100 | 0 |